sensor_id;sensor_type;location;lat;lon;timestamp;pressure;altitude;pressure_sealevel;temperature;humidity
43934;BME280;59081;42.706;23.306;2023-03-31T00:01:07;95233.50;;;9.41;56.45
43934;BME280;59081;42.706;23.306;2023-03-31T00:03:33;95040.81;;;8.18;56.51
43934;BME280;59081;42.706;23.306;2023-03-31T00:06:03;95119.63;;;8.73;56.73
43934;BME280;59081;42.706;23.306;2023-03-31T00:08:30;95174.91;;;9.12;56.64
43934;BME280;59081;42.706;23.306;2023-03-31T00:11:00;95115.16;;;8.63;56.88
43934;BME280;59081;42.706;23.306;2023-03-31T00:13:31;95089.56;;;8.50;56.62
43934;BME280;59081;42.706;23.306;2023-03-31T00:16:03;95092.66;;;8.52;56.76
43934;BME280;59081;42.706;23.306;2023-03-31T00:18:30;95204.72;;;9.13;57.25
43934;BME280;59081;42.706;23.306;2023-03-31T00:21:15;95066.81;;;8.14;57.75
43934;BME280;59081;42.706;23.306;2023-03-31T00:24:01;95122.72;;;8.59;57.75
43934;BME280;59081;42.706;23.306;2023-03-31T00:26:28;95098.44;;;8.38;57.82
43934;BME280;59081;42.706;23.306;2023-03-31T00:28:57;95112.50;;;8.20;58.56
43934;BME280;59081;42.706;23.306;2023-03-31T00:31:24;95059.63;;;7.80;58.90
43934;BME280;59081;42.706;23.306;2023-03-31T00:33:49;95099.50;;;8.24;58.45
43934;BME280;59081;42.706;23.306;2023-03-31T00:36:16;95045.66;;;7.94;58.58
43934;BME280;59081;42.706;23.306;2023-03-31T00:38:46;95021.44;;;7.89;58.31
43934;BME280;59081;42.706;23.306;2023-03-31T00:41:13;95120.97;;;8.29;58.97
43934;BME280;59081;42.706;23.306;2023-03-31T00:43:39;95081.00;;;8.09;58.54
43934;BME280;59081;42.706;23.306;2023-03-31T00:46:28;95112.03;;;8.45;58.52
43934;BME280;59081;42.706;23.306;2023-03-31T00:48:56;95101.91;;;8.42;58.60
43934;BME280;59081;42.706;23.306;2023-03-31T00:51:25;95176.69;;;9.02;58.33
43934;BME280;59081;42.706;23.306;2023-03-31T00:53:57;95116.88;;;8.57;58.66
43934;BME280;59081;42.706;23.306;2023-03-31T00:56:28;95118.72;;;8.24;59.73
43934;BME280;59081;42.706;23.306;2023-03-31T00:58:56;95015.91;;;7.73;59.22
43934;BME280;59081;42.706;23.306;2023-03-31T01:01:24;95063.53;;;8.19;59.61
43934;BME280;59081;42.706;23.306;2023-03-31T01:03:54;95033.38;;;7.99;59.71
43934;BME280;59081;42.706;23.306;2023-03-31T01:06:19;95034.63;;;8.14;59.72
43934;BME280;59081;42.706;23.306;2023-03-31T01:08:47;95044.75;;;8.17;58.91
43934;BME280;59081;42.706;23.306;2023-03-31T01:11:19;95024.59;;;8.08;59.06
43934;BME280;59081;42.706;23.306;2023-03-31T01:13:47;95080.78;;;8.39;57.66
43934;BME280;59081;42.706;23.306;2023-03-31T01:16:16;95025.38;;;8.08;58.26
43934;BME280;59081;42.706;23.306;2023-03-31T01:18:43;95111.25;;;8.81;57.69
43934;BME280;59081;42.706;23.306;2023-03-31T01:29:58;95182.31;;;9.31;57.79
43934;BME280;59081;42.706;23.306;2023-03-31T01:32:45;95185.00;;;9.34;57.80
43934;BME280;59081;42.706;23.306;2023-03-31T01:35:33;95177.41;;;9.38;57.62
43934;BME280;59081;42.706;23.306;2023-03-31T01:41:08;95151.66;;;9.16;58.06
43934;BME280;59081;42.706;23.306;2023-03-31T01:46:28;95101.13;;;8.78;57.44
43934;BME280;59081;42.706;23.306;2023-03-31T01:49:12;95082.56;;;8.65;56.55
43934;BME280;59081;42.706;23.306;2023-03-31T01:56:40;95209.19;;;9.39;56.47
43934;BME280;59081;42.706;23.306;2023-03-31T01:59:19;95042.97;;;8.11;56.82
43934;BME280;59081;42.706;23.306;2023-03-31T02:01:52;95079.88;;;8.46;56.99
43934;BME280;59081;42.706;23.306;2023-03-31T02:04:30;95099.53;;;8.60;56.95
43934;BME280;59081;42.706;23.306;2023-03-31T02:07:10;95160.41;;;8.75;57.55
43934;BME280;59081;42.706;23.306;2023-03-31T02:09:41;95087.91;;;8.36;57.30
43934;BME280;59081;42.706;23.306;2023-03-31T02:12:10;95079.22;;;8.18;57.18
43934;BME280;59081;42.706;23.306;2023-03-31T02:14:38;95115.28;;;8.40;57.63
43934;BME280;59081;42.706;23.306;2023-03-31T02:17:06;95221.69;;;9.08;57.29
43934;BME280;59081;42.706;23.306;2023-03-31T02:19:39;95176.19;;;8.71;57.19
43934;BME280;59081;42.706;23.306;2023-03-31T02:22:09;95109.16;;;8.13;58.67
43934;BME280;59081;42.706;23.306;2023-03-31T02:24:37;95170.72;;;8.51;59.93
43934;BME280;59081;42.706;23.306;2023-03-31T02:27:18;95221.31;;;8.90;61.51
43934;BME280;59081;42.706;23.306;2023-03-31T02:29:45;95117.16;;;8.03;62.38
43934;BME280;59081;42.706;23.306;2023-03-31T02:32:34;95251.16;;;8.88;61.17
43934;BME280;59081;42.706;23.306;2023-03-31T02:35:02;95168.91;;;8.45;60.89
43934;BME280;59081;42.706;23.306;2023-03-31T02:37:29;95088.41;;;8.12;63.57
43934;BME280;59081;42.706;23.306;2023-03-31T02:39:57;95270.75;;;8.90;66.12
43934;BME280;59081;42.706;23.306;2023-03-31T02:42:24;95170.56;;;8.19;67.71
43934;BME280;59081;42.706;23.306;2023-03-31T02:44:50;95220.19;;;8.67;67.62
43934;BME280;59081;42.706;23.306;2023-03-31T02:47:18;95169.94;;;8.31;67.17
43934;BME280;59081;42.706;23.306;2023-03-31T02:49:50;95093.38;;;7.77;69.04
43934;BME280;59081;42.706;23.306;2023-03-31T02:52:33;95250.06;;;8.65;71.00
43934;BME280;59081;42.706;23.306;2023-03-31T02:55:20;95182.03;;;8.14;73.41
43934;BME280;59081;42.706;23.306;2023-03-31T02:58:17;95233.09;;;8.51;75.17
43934;BME280;59081;42.706;23.306;2023-03-31T03:01:13;95224.28;;;8.59;74.59
43934;BME280;59081;42.706;23.306;2023-03-31T03:09:13;95185.06;;;8.79;74.08
43934;BME280;59081;42.706;23.306;2023-03-31T03:15:02;95101.47;;;8.44;75.22
43934;BME280;59081;42.706;23.306;2023-03-31T03:17:54;95156.81;;;8.78;75.59
43934;BME280;59081;42.706;23.306;2023-03-31T03:20:20;95087.59;;;8.31;75.91
43934;BME280;59081;42.706;23.306;2023-03-31T03:22:46;95150.13;;;8.79;74.94
43934;BME280;59081;42.706;23.306;2023-03-31T03:25:13;95197.06;;;9.21;74.50
43934;BME280;59081;42.706;23.306;2023-03-31T03:27:41;95037.03;;;8.12;74.45
43934;BME280;59081;42.706;23.306;2023-03-31T03:30:09;95051.78;;;8.38;74.44
43934;BME280;59081;42.706;23.306;2023-03-31T03:32:35;95142.50;;;9.03;73.93
43934;BME280;59081;42.706;23.306;2023-03-31T03:35:01;95151.03;;;9.25;73.25
43934;BME280;59081;42.706;23.306;2023-03-31T03:37:28;95187.63;;;9.54;73.20
43934;BME280;59081;42.706;23.306;2023-03-31T03:39:54;95051.69;;;8.78;73.01
43934;BME280;59081;42.706;23.306;2023-03-31T03:42:19;95086.72;;;9.06;72.44
43934;BME280;59081;42.706;23.306;2023-03-31T03:44:45;95128.78;;;9.35;72.06
43934;BME280;59081;42.706;23.306;2023-03-31T03:47:11;95107.84;;;9.09;72.68
43934;BME280;59081;42.706;23.306;2023-03-31T03:49:37;95169.34;;;9.31;72.29
43934;BME280;59081;42.706;23.306;2023-03-31T03:52:03;95097.88;;;8.83;71.73
43934;BME280;59081;42.706;23.306;2023-03-31T03:54:28;95021.91;;;8.24;71.55
43934;BME280;59081;42.706;23.306;2023-03-31T03:56:54;95168.44;;;9.02;72.75
43934;BME280;59081;42.706;23.306;2023-03-31T03:59:19;95060.31;;;8.44;72.39
43934;BME280;59081;42.706;23.306;2023-03-31T04:01:45;95136.00;;;8.97;71.95
43934;BME280;59081;42.706;23.306;2023-03-31T04:04:11;95094.94;;;8.73;71.52
43934;BME280;59081;42.706;23.306;2023-03-31T04:06:36;95038.22;;;8.31;71.81
43934;BME280;59081;42.706;23.306;2023-03-31T04:09:02;95108.16;;;8.79;71.53
43934;BME280;59081;42.706;23.306;2023-03-31T04:11:28;95100.31;;;8.61;71.86
43934;BME280;59081;42.706;23.306;2023-03-31T04:13:54;95177.72;;;9.08;72.13
43934;BME280;59081;42.706;23.306;2023-03-31T04:16:19;95178.06;;;8.94;72.35
43934;BME280;59081;42.706;23.306;2023-03-31T04:18:47;95075.09;;;8.30;72.63
43934;BME280;59081;42.706;23.306;2023-03-31T04:21:14;95136.00;;;8.61;73.92
43934;BME280;59081;42.706;23.306;2023-03-31T04:23:48;95171.31;;;8.79;73.82
43934;BME280;59081;42.706;23.306;2023-03-31T04:26:16;95031.22;;;7.90;74.00
43934;BME280;59081;42.706;23.306;2023-03-31T04:28:43;95107.47;;;8.38;73.97
43934;BME280;59081;42.706;23.306;2023-03-31T04:31:12;95142.22;;;8.65;73.49
43934;BME280;59081;42.706;23.306;2023-03-31T04:33:41;95145.97;;;8.71;73.45
43934;BME280;59081;42.706;23.306;2023-03-31T04:36:10;95139.94;;;8.60;73.48
43934;BME280;59081;42.706;23.306;2023-03-31T04:38:42;95171.84;;;8.90;73.35
43934;BME280;59081;42.706;23.306;2023-03-31T04:41:11;95178.19;;;8.87;74.34
43934;BME280;59081;42.706;23.306;2023-03-31T04:43:37;95053.13;;;8.30;73.17
43934;BME280;59081;42.706;23.306;2023-03-31T04:46:03;95040.59;;;8.29;77.78
43934;BME280;59081;42.706;23.306;2023-03-31T04:48:28;95074.28;;;8.49;73.82
43934;BME280;59081;42.706;23.306;2023-03-31T04:50:54;95077.25;;;8.75;78.15
43934;BME280;59081;42.706;23.306;2023-03-31T04:53:19;95048.19;;;8.41;73.83
43934;BME280;59081;42.706;23.306;2023-03-31T04:55:45;95057.22;;;8.58;72.90
43934;BME280;59081;42.706;23.306;2023-03-31T04:58:10;95102.75;;;9.07;72.24
43934;BME280;59081;42.706;23.306;2023-03-31T05:00:36;95065.06;;;8.92;71.54
43934;BME280;59081;42.706;23.306;2023-03-31T05:03:02;95019.50;;;8.78;71.44
43934;BME280;59081;42.706;23.306;2023-03-31T05:05:31;95049.09;;;9.03;71.16
43934;BME280;59081;42.706;23.306;2023-03-31T05:08:00;95091.41;;;9.38;70.94
43934;BME280;59081;42.706;23.306;2023-03-31T05:10:31;95129.00;;;9.73;70.82
43934;BME280;59081;42.706;23.306;2023-03-31T05:12:59;95076.38;;;9.42;71.79
43934;BME280;59081;42.706;23.306;2023-03-31T05:15:25;95050.56;;;9.07;72.51
43934;BME280;59081;42.706;23.306;2023-03-31T05:28:26;95136.66;;;10.11;71.82
43934;BME280;59081;42.706;23.306;2023-03-31T05:38:45;95103.69;;;9.50;72.40
43934;BME280;59081;42.706;23.306;2023-03-31T05:43:53;95099.06;;;9.47;74.28
43934;BME280;59081;42.706;23.306;2023-03-31T05:46:30;95003.44;;;8.77;75.07
43934;BME280;59081;42.706;23.306;2023-03-31T05:49:19;95137.69;;;9.72;75.01
43934;BME280;59081;42.706;23.306;2023-03-31T05:51:51;94967.75;;;8.77;75.19
43934;BME280;59081;42.706;23.306;2023-03-31T05:54:22;95103.50;;;9.57;73.65
43934;BME280;59081;42.706;23.306;2023-03-31T06:46:31;95025.66;;;11.63;52.88
43934;BME280;59081;42.706;23.306;2023-03-31T06:51:43;95148.06;;;12.60;51.47
43934;BME280;59081;42.706;23.306;2023-03-31T06:54:17;95144.25;;;12.66;50.68
43934;BME280;59081;42.706;23.306;2023-03-31T06:56:48;95084.78;;;12.31;50.33
43934;BME280;59081;42.706;23.306;2023-03-31T07:02:05;94997.72;;;11.73;50.29
43934;BME280;59081;42.706;23.306;2023-03-31T07:04:38;94975.53;;;11.77;50.16
43934;BME280;59081;42.706;23.306;2023-03-31T07:07:07;95003.84;;;12.12;49.83
43934;BME280;59081;42.706;23.306;2023-03-31T07:09:35;95001.81;;;12.12;50.00
43934;BME280;59081;42.706;23.306;2023-03-31T07:12:04;94969.53;;;12.00;49.93
43934;BME280;59081;42.706;23.306;2023-03-31T07:14:35;95024.22;;;12.14;50.18
43934;BME280;59081;42.706;23.306;2023-03-31T07:17:10;94993.78;;;12.27;50.01
43934;BME280;59081;42.706;23.306;2023-03-31T07:19:39;95045.53;;;12.36;50.35
43934;BME280;59081;42.706;23.306;2023-03-31T07:22:15;95054.28;;;12.65;50.60
43934;BME280;59081;42.706;23.306;2023-03-31T07:24:42;95015.22;;;12.45;50.08
43934;BME280;59081;42.706;23.306;2023-03-31T07:27:09;95073.25;;;12.85;50.25
43934;BME280;59081;42.706;23.306;2023-03-31T07:29:35;95074.38;;;13.28;49.00
43934;BME280;59081;42.706;23.306;2023-03-31T07:32:04;95003.59;;;13.08;48.56
43934;BME280;59081;42.706;23.306;2023-03-31T07:34:35;95053.53;;;13.63;48.42
43934;BME280;59081;42.706;23.306;2023-03-31T07:37:03;94951.47;;;12.79;48.29
43934;BME280;59081;42.706;23.306;2023-03-31T07:39:38;95043.94;;;13.37;48.73
43934;BME280;59081;42.706;23.306;2023-03-31T07:42:04;95032.91;;;13.46;48.63
43934;BME280;59081;42.706;23.306;2023-03-31T07:49:42;94932.34;;;13.12;46.87
43934;BME280;59081;42.706;23.306;2023-03-31T07:59:58;94959.09;;;13.79;46.36
43934;BME280;59081;42.706;23.306;2023-03-31T08:02:24;95067.34;;;14.96;45.19
43934;BME280;59081;42.706;23.306;2023-03-31T08:04:49;95076.22;;;15.10;44.73
43934;BME280;59081;42.706;23.306;2023-03-31T08:07:15;94903.75;;;14.21;43.37
43934;BME280;59081;42.706;23.306;2023-03-31T08:12:09;94937.28;;;14.33;43.25
43934;BME280;59081;42.706;23.306;2023-03-31T08:14:35;95003.94;;;14.80;43.10
43934;BME280;59081;42.706;23.306;2023-03-31T08:17:01;94897.50;;;14.03;43.26
43934;BME280;59081;42.706;23.306;2023-03-31T08:19:28;95048.72;;;14.46;44.93
43934;BME280;59081;42.706;23.306;2023-03-31T08:21:54;94957.03;;;14.07;44.61
43934;BME280;59081;42.706;23.306;2023-03-31T08:24:20;94962.47;;;14.02;44.70
43934;BME280;59081;42.706;23.306;2023-03-31T08:26:46;95056.88;;;14.91;43.99
43934;BME280;59081;42.706;23.306;2023-03-31T08:29:12;94912.66;;;14.35;43.53
43934;BME280;59081;42.706;23.306;2023-03-31T08:31:37;94957.03;;;15.01;42.59
43934;BME280;59081;42.706;23.306;2023-03-31T08:34:04;94950.63;;;14.85;41.88
43934;BME280;59081;42.706;23.306;2023-03-31T08:36:30;94892.63;;;14.73;42.16
43934;BME280;59081;42.706;23.306;2023-03-31T08:38:55;94981.34;;;15.29;42.32
43934;BME280;59081;42.706;23.306;2023-03-31T08:44:14;94923.59;;;14.71;42.14
43934;BME280;59081;42.706;23.306;2023-03-31T08:46:41;94888.22;;;13.73;44.20
43934;BME280;59081;42.706;23.306;2023-03-31T08:49:13;95034.38;;;14.98;43.38
43934;BME280;59081;42.706;23.306;2023-03-31T08:51:45;94898.88;;;14.07;43.67
43934;BME280;59081;42.706;23.306;2023-03-31T08:54:20;95021.47;;;15.43;42.87
43934;BME280;59081;42.706;23.306;2023-03-31T08:56:51;94898.09;;;14.58;42.67
43934;BME280;59081;42.706;23.306;2023-03-31T08:59:29;94883.25;;;14.37;42.97
43934;BME280;59081;42.706;23.306;2023-03-31T09:04:48;95006.38;;;15.44;41.47
43934;BME280;59081;42.706;23.306;2023-03-31T09:13:20;95000.38;;;15.70;41.15
43934;BME280;59081;42.706;23.306;2023-03-31T09:16:14;95016.69;;;15.91;41.07
43934;BME280;59081;42.706;23.306;2023-03-31T09:18:46;94918.72;;;15.52;40.02
43934;BME280;59081;42.706;23.306;2023-03-31T09:21:17;95001.69;;;16.57;39.69
43934;BME280;59081;42.706;23.306;2023-03-31T09:24:31;94906.38;;;15.92;39.26
43934;BME280;59081;42.706;23.306;2023-03-31T09:27:23;94881.72;;;15.85;39.07
43934;BME280;59081;42.706;23.306;2023-03-31T09:29:59;94962.59;;;16.31;38.67
43934;BME280;59081;42.706;23.306;2023-03-31T09:32:30;95008.88;;;16.93;37.64
43934;BME280;59081;42.706;23.306;2023-03-31T09:35:26;94992.75;;;16.82;37.69
43934;BME280;59081;42.706;23.306;2023-03-31T09:40:46;94958.47;;;16.41;38.35
43934;BME280;59081;42.706;23.306;2023-03-31T09:43:26;94985.13;;;16.77;38.06
43934;BME280;59081;42.706;23.306;2023-03-31T09:45:53;94886.41;;;15.93;38.26
43934;BME280;59081;42.706;23.306;2023-03-31T09:48:31;94969.41;;;16.45;38.11
43934;BME280;59081;42.706;23.306;2023-03-31T09:53:39;94987.50;;;17.19;37.48
43934;BME280;59081;42.706;23.306;2023-03-31T09:56:10;94996.69;;;16.90;37.95
43934;BME280;59081;42.706;23.306;2023-03-31T09:58:44;94922.63;;;16.43;38.10
43934;BME280;59081;42.706;23.306;2023-03-31T10:01:16;94904.81;;;16.06;38.65
43934;BME280;59081;42.706;23.306;2023-03-31T10:03:52;94834.50;;;15.41;38.97
43934;BME280;59081;42.706;23.306;2023-03-31T10:06:19;94853.38;;;15.66;38.88
43934;BME280;59081;42.706;23.306;2023-03-31T10:11:22;94946.66;;;17.11;37.53
43934;BME280;59081;42.706;23.306;2023-03-31T10:16:49;94831.72;;;17.04;36.51
43934;BME280;59081;42.706;23.306;2023-03-31T10:19:24;94939.41;;;17.59;37.27
43934;BME280;59081;42.706;23.306;2023-03-31T10:21:59;94868.72;;;17.11;36.75
43934;BME280;59081;42.706;23.306;2023-03-31T10:24:25;94876.38;;;17.16;36.86
43934;BME280;59081;42.706;23.306;2023-03-31T10:27:01;94849.75;;;17.09;36.69
43934;BME280;59081;42.706;23.306;2023-03-31T10:29:30;94815.66;;;16.94;36.50
43934;BME280;59081;42.706;23.306;2023-03-31T10:32:19;94937.47;;;17.45;37.75
43934;BME280;59081;42.706;23.306;2023-03-31T10:34:47;94816.13;;;16.37;38.32
43934;BME280;59081;42.706;23.306;2023-03-31T10:37:26;94790.25;;;15.96;39.37
43934;BME280;59081;42.706;23.306;2023-03-31T10:40:12;94905.28;;;16.33;40.45
43934;BME280;59081;42.706;23.306;2023-03-31T10:42:39;94804.84;;;15.61;40.60
43934;BME280;59081;42.706;23.306;2023-03-31T10:47:56;94812.31;;;15.55;40.67
43934;BME280;59081;42.706;23.306;2023-03-31T10:50:30;94798.50;;;15.46;40.80
43934;BME280;59081;42.706;23.306;2023-03-31T10:53:10;94907.06;;;16.51;40.64
43934;BME280;59081;42.706;23.306;2023-03-31T10:56:15;94812.97;;;15.65;40.84
43934;BME280;59081;42.706;23.306;2023-03-31T11:01:47;94776.03;;;15.74;40.20
43934;BME280;59081;42.706;23.306;2023-03-31T11:12:38;94892.97;;;16.55;39.80
43934;BME280;59081;42.706;23.306;2023-03-31T11:15:30;94863.00;;;16.29;39.58
43934;BME280;59081;42.706;23.306;2023-03-31T11:18:02;94837.53;;;16.16;39.72
43934;BME280;59081;42.706;23.306;2023-03-31T11:20:49;94881.91;;;16.11;40.35
43934;BME280;59081;42.706;23.306;2023-03-31T11:23:26;94878.28;;;15.90;40.93
43934;BME280;59081;42.706;23.306;2023-03-31T11:26:04;94786.72;;;15.51;40.76
43934;BME280;59081;42.706;23.306;2023-03-31T11:42:09;94853.69;;;17.02;38.94
43934;BME280;59081;42.706;23.306;2023-03-31T11:44:43;94800.63;;;16.65;38.51
43934;BME280;59081;42.706;23.306;2023-03-31T11:47:29;94852.56;;;17.15;38.48
43934;BME280;59081;42.706;23.306;2023-03-31T11:50:15;94729.06;;;16.46;38.25
43934;BME280;59081;42.706;23.306;2023-03-31T11:52:50;94742.69;;;16.64;38.06
43934;BME280;59081;42.706;23.306;2023-03-31T11:55:20;94759.38;;;16.64;38.02
43934;BME280;59081;42.706;23.306;2023-03-31T11:57:58;94826.41;;;17.27;37.95
43934;BME280;59081;42.706;23.306;2023-03-31T12:00:41;94779.13;;;17.07;37.62
43934;BME280;59081;42.706;23.306;2023-03-31T12:03:12;94818.66;;;17.36;38.02
43934;BME280;59081;42.706;23.306;2023-03-31T12:05:48;94719.97;;;16.86;37.28
43934;BME280;59081;42.706;23.306;2023-03-31T12:08:38;94713.50;;;16.94;37.26
43934;BME280;59081;42.706;23.306;2023-03-31T12:11:13;94687.44;;;17.23;36.41
43934;BME280;59081;42.706;23.306;2023-03-31T12:13:50;94725.69;;;17.86;36.04
43934;BME280;59081;42.706;23.306;2023-03-31T12:16:23;94679.88;;;17.55;35.94
43934;BME280;59081;42.706;23.306;2023-03-31T12:22:01;94705.41;;;18.17;34.88
43934;BME280;59081;42.706;23.306;2023-03-31T12:24:30;94714.31;;;18.26;35.19
43934;BME280;59081;42.706;23.306;2023-03-31T12:27:27;94766.38;;;18.46;35.42
43934;BME280;59081;42.706;23.306;2023-03-31T12:30:00;94719.25;;;18.48;35.35
43934;BME280;59081;42.706;23.306;2023-03-31T12:32:41;94687.59;;;18.08;34.89
43934;BME280;59081;42.706;23.306;2023-03-31T12:35:28;94664.16;;;17.21;35.71
43934;BME280;59081;42.706;23.306;2023-03-31T12:41:24;94781.91;;;19.01;34.63
43934;BME280;59081;42.706;23.306;2023-03-31T12:46:48;94767.59;;;20.14;33.06
43934;BME280;59081;42.706;23.306;2023-03-31T12:52:41;94741.94;;;21.07;31.33
43934;BME280;59081;42.706;23.306;2023-03-31T12:55:30;94747.72;;;21.20;30.79
43934;BME280;59081;42.706;23.306;2023-03-31T13:03:43;94737.41;;;21.80;29.70
43934;BME280;59081;42.706;23.306;2023-03-31T13:08:55;94597.50;;;21.23;29.30
43934;BME280;59081;42.706;23.306;2023-03-31T13:14:26;94703.63;;;21.97;29.40
43934;BME280;59081;42.706;23.306;2023-03-31T13:17:19;94652.75;;;22.36;28.64
43934;BME280;59081;42.706;23.306;2023-03-31T13:19:46;94607.13;;;22.73;27.74
43934;BME280;59081;42.706;23.306;2023-03-31T13:22:30;94679.81;;;23.20;27.93
43934;BME280;59081;42.706;23.306;2023-03-31T13:27:32;94602.19;;;22.42;28.36
43934;BME280;59081;42.706;23.306;2023-03-31T13:29:59;94627.22;;;22.83;27.70
43934;BME280;59081;42.706;23.306;2023-03-31T13:32:25;94585.97;;;22.53;28.14
43934;BME280;59081;42.706;23.306;2023-03-31T13:43:43;94569.78;;;22.84;27.27
43934;BME280;59081;42.706;23.306;2023-03-31T13:49:23;94626.28;;;23.63;26.95
43934;BME280;59081;42.706;23.306;2023-03-31T13:52:07;94622.88;;;23.19;27.59
43934;BME280;59081;42.706;23.306;2023-03-31T13:57:37;94578.31;;;22.73;27.82
43934;BME280;59081;42.706;23.306;2023-03-31T14:03:16;94614.69;;;23.53;27.36
43934;BME280;59081;42.706;23.306;2023-03-31T14:05:52;94494.19;;;22.48;27.35
43934;BME280;59081;42.706;23.306;2023-03-31T14:08:39;94604.50;;;23.50;27.15
43934;BME280;59081;42.706;23.306;2023-03-31T14:11:47;94497.94;;;23.20;27.08
43934;BME280;59081;42.706;23.306;2023-03-31T14:14:12;94468.06;;;23.49;25.86
43934;BME280;59081;42.706;23.306;2023-03-31T14:38:45;94460.25;;;24.35;24.96
43934;BME280;59081;42.706;23.306;2023-03-31T14:41:19;94492.88;;;24.85;24.79
43934;BME280;59081;42.706;23.306;2023-03-31T14:46:31;94460.69;;;24.59;24.89
43934;BME280;59081;42.706;23.306;2023-03-31T14:49:03;94553.81;;;24.75;25.58
43934;BME280;59081;42.706;23.306;2023-03-31T14:51:31;94429.88;;;23.27;26.01
43934;BME280;59081;42.706;23.306;2023-03-31T14:53:58;94440.78;;;22.86;26.90
43934;BME280;59081;42.706;23.306;2023-03-31T14:56:41;94536.16;;;23.10;27.18
43934;BME280;59081;42.706;23.306;2023-03-31T14:59:11;94443.06;;;21.99;27.73
43934;BME280;59081;42.706;23.306;2023-03-31T15:01:40;94512.84;;;22.27;28.75
43934;BME280;59081;42.706;23.306;2023-03-31T15:04:08;94467.16;;;21.46;29.74
43934;BME280;59081;42.706;23.306;2023-03-31T15:06:34;94506.44;;;21.40;29.96
43934;BME280;59081;42.706;23.306;2023-03-31T15:09:04;94549.78;;;21.34;30.33
43934;BME280;59081;42.706;23.306;2023-03-31T15:11:34;94429.31;;;20.49;30.62
43934;BME280;59081;42.706;23.306;2023-03-31T15:14:00;94434.66;;;20.06;31.51
43934;BME280;59081;42.706;23.306;2023-03-31T15:19:16;94510.66;;;20.05;32.46
43934;BME280;59081;42.706;23.306;2023-03-31T15:21:42;94460.53;;;19.60;32.63
43934;BME280;59081;42.706;23.306;2023-03-31T15:24:14;94406.56;;;19.19;33.00
43934;BME280;59081;42.706;23.306;2023-03-31T15:26:55;94424.88;;;18.97;33.29
43934;BME280;59081;42.706;23.306;2023-03-31T15:29:29;94535.41;;;19.78;33.21
43934;BME280;59081;42.706;23.306;2023-03-31T15:32:02;94511.88;;;19.35;33.86
43934;BME280;59081;42.706;23.306;2023-03-31T15:34:31;94482.00;;;18.85;34.42
43934;BME280;59081;42.706;23.306;2023-03-31T15:36:59;94481.97;;;18.74;34.65
43934;BME280;59081;42.706;23.306;2023-03-31T15:39:27;94483.50;;;18.75;34.74
43934;BME280;59081;42.706;23.306;2023-03-31T15:41:55;94454.84;;;18.52;34.48
43934;BME280;59081;42.706;23.306;2023-03-31T15:47:01;94461.16;;;18.58;34.35
43934;BME280;59081;42.706;23.306;2023-03-31T15:49:30;94416.50;;;18.19;34.81
43934;BME280;59081;42.706;23.306;2023-03-31T15:51:56;94394.47;;;17.99;34.64
43934;BME280;59081;42.706;23.306;2023-03-31T15:54:40;94425.41;;;18.18;34.72
43934;BME280;59081;42.706;23.306;2023-03-31T15:57:06;94527.88;;;18.62;35.47
43934;BME280;59081;42.706;23.306;2023-03-31T16:00:04;94531.16;;;18.60;36.12
43934;BME280;59081;42.706;23.306;2023-03-31T16:02:41;94458.31;;;18.08;36.08
43934;BME280;59081;42.706;23.306;2023-03-31T16:05:22;94497.38;;;18.36;35.22
43934;BME280;59081;42.706;23.306;2023-03-31T16:07:52;94416.69;;;17.77;35.69
43934;BME280;59081;42.706;23.306;2023-03-31T16:10:20;94390.78;;;17.48;35.88
43934;BME280;59081;42.706;23.306;2023-03-31T16:13:08;94524.50;;;18.41;36.06
43934;BME280;59081;42.706;23.306;2023-03-31T16:15:42;94454.22;;;17.92;36.38
43934;BME280;59081;42.706;23.306;2023-03-31T16:18:16;94432.81;;;17.61;36.38
43934;BME280;59081;42.706;23.306;2023-03-31T16:20:48;94359.59;;;16.85;36.93
43934;BME280;59081;42.706;23.306;2023-03-31T16:23:26;94419.50;;;17.23;37.13
43934;BME280;59081;42.706;23.306;2023-03-31T16:25:52;94388.50;;;16.98;36.94
43934;BME280;59081;42.706;23.306;2023-03-31T16:28:21;94467.97;;;17.53;36.90
43934;BME280;59081;42.706;23.306;2023-03-31T16:30:48;94389.03;;;16.97;37.40
43934;BME280;59081;42.706;23.306;2023-03-31T16:33:17;94462.13;;;17.46;37.30
43934;BME280;59081;42.706;23.306;2023-03-31T16:35:45;94387.75;;;16.98;37.13
43934;BME280;59081;42.706;23.306;2023-03-31T16:38:16;94462.09;;;17.40;37.56
43934;BME280;59081;42.706;23.306;2023-03-31T16:40:44;94418.38;;;17.03;37.70
43934;BME280;59081;42.706;23.306;2023-03-31T16:43:20;94391.25;;;16.87;38.16
43934;BME280;59081;42.706;23.306;2023-03-31T16:45:50;94533.50;;;17.43;38.75
43934;BME280;59081;42.706;23.306;2023-03-31T16:48:29;94495.31;;;17.07;38.85
43934;BME280;59081;42.706;23.306;2023-03-31T16:50:58;94492.97;;;16.99;39.41
43934;BME280;59081;42.706;23.306;2023-03-31T16:53:32;94485.25;;;16.83;39.37
43934;BME280;59081;42.706;23.306;2023-03-31T16:55:59;94389.63;;;16.07;39.79
43934;BME280;59081;42.706;23.306;2023-03-31T16:58:25;94378.53;;;16.12;39.71
43934;BME280;59081;42.706;23.306;2023-03-31T17:00:55;94375.03;;;15.86;40.38
43934;BME280;59081;42.706;23.306;2023-03-31T17:03:21;94362.84;;;15.78;40.33
43934;BME280;59081;42.706;23.306;2023-03-31T17:05:50;94514.13;;;16.60;40.27
43934;BME280;59081;42.706;23.306;2023-03-31T17:08:20;94500.84;;;16.44;40.81
43934;BME280;59081;42.706;23.306;2023-03-31T17:10:59;94481.78;;;16.31;40.97
43934;BME280;59081;42.706;23.306;2023-03-31T17:13:25;94457.59;;;16.11;41.00
43934;BME280;59081;42.706;23.306;2023-03-31T17:15:51;94489.31;;;16.25;41.09
43934;BME280;59081;42.706;23.306;2023-03-31T17:18:18;94418.25;;;15.66;41.50
43934;BME280;59081;42.706;23.306;2023-03-31T17:20:44;94429.09;;;15.64;42.03
43934;BME280;59081;42.706;23.306;2023-03-31T17:23:10;94494.38;;;15.80;42.89